sensor_id;sensor_type;location;lat;lon;timestamp;P1;durP1;ratioP1;P2;durP2;ratioP2
56581;SDS011;42463;52.214;21.238;2022-10-31T00:00:57;32.40;;;17.70;;
56581;SDS011;42463;52.214;21.238;2022-10-31T00:03:22;31.00;;;18.40;;
56581;SDS011;42463;52.214;21.238;2022-10-31T00:05:49;30.40;;;19.50;;
56581;SDS011;42463;52.214;21.238;2022-10-31T00:08:13;33.50;;;20.30;;
56581;SDS011;42463;52.214;21.238;2022-10-31T00:10:39;34.10;;;20.10;;
56581;SDS011;42463;52.214;21.238;2022-10-31T00:13:04;27.30;;;15.60;;
56581;SDS011;42463;52.214;21.238;2022-10-31T00:15:28;20.30;;;13.30;;
56581;SDS011;42463;52.214;21.238;2022-10-31T00:17:54;21.30;;;13.20;;
56581;SDS011;42463;52.214;21.238;2022-10-31T00:20:18;22.00;;;13.90;;
56581;SDS011;42463;52.214;21.238;2022-10-31T00:22:43;21.60;;;12.60;;
56581;SDS011;42463;52.214;21.238;2022-10-31T00:25:08;24.90;;;13.10;;
56581;SDS011;42463;52.214;21.238;2022-10-31T00:27:33;21.20;;;13.10;;
56581;SDS011;42463;52.214;21.238;2022-10-31T00:29:57;21.60;;;12.50;;
56581;SDS011;42463;52.214;21.238;2022-10-31T00:32:21;27.10;;;15.40;;
56581;SDS011;42463;52.214;21.238;2022-10-31T00:34:46;27.10;;;16.00;;
56581;SDS011;42463;52.214;21.238;2022-10-31T00:37:10;27.90;;;16.30;;
56581;SDS011;42463;52.214;21.238;2022-10-31T00:39:34;23.60;;;14.50;;
56581;SDS011;42463;52.214;21.238;2022-10-31T00:41:59;26.00;;;15.80;;
56581;SDS011;42463;52.214;21.238;2022-10-31T00:46:45;26.50;;;14.60;;
56581;SDS011;42463;52.214;21.238;2022-10-31T00:49:09;25.60;;;14.10;;
56581;SDS011;42463;52.214;21.238;2022-10-31T00:53:56;22.20;;;15.20;;
56581;SDS011;42463;52.214;21.238;2022-10-31T00:58:43;26.10;;;16.00;;
56581;SDS011;42463;52.214;21.238;2022-10-31T01:01:07;25.30;;;16.60;;
56581;SDS011;42463;52.214;21.238;2022-10-31T01:03:32;30.20;;;18.70;;
56581;SDS011;42463;52.214;21.238;2022-10-31T01:05:57;28.50;;;18.60;;
56581;SDS011;42463;52.214;21.238;2022-10-31T01:08:23;32.70;;;19.80;;
56581;SDS011;42463;52.214;21.238;2022-10-31T01:10:58;28.70;;;19.20;;
56581;SDS011;42463;52.214;21.238;2022-10-31T01:13:28;33.40;;;21.70;;
56581;SDS011;42463;52.214;21.238;2022-10-31T01:15:54;30.40;;;18.70;;
56581;SDS011;42463;52.214;21.238;2022-10-31T01:18:21;34.00;;;19.10;;
56581;SDS011;42463;52.214;21.238;2022-10-31T01:20:46;30.70;;;19.50;;
56581;SDS011;42463;52.214;21.238;2022-10-31T01:23:10;32.10;;;20.70;;
56581;SDS011;42463;52.214;21.238;2022-10-31T01:25:36;34.10;;;21.70;;
56581;SDS011;42463;52.214;21.238;2022-10-31T01:28:01;30.50;;;20.40;;
56581;SDS011;42463;52.214;21.238;2022-10-31T01:30:25;30.30;;;19.90;;
56581;SDS011;42463;52.214;21.238;2022-10-31T01:32:50;28.10;;;19.40;;
56581;SDS011;42463;52.214;21.238;2022-10-31T01:35:14;31.30;;;20.00;;
56581;SDS011;42463;52.214;21.238;2022-10-31T01:37:39;34.20;;;20.10;;
56581;SDS011;42463;52.214;21.238;2022-10-31T01:40:04;28.80;;;19.50;;
56581;SDS011;42463;52.214;21.238;2022-10-31T01:42:29;30.40;;;19.50;;
56581;SDS011;42463;52.214;21.238;2022-10-31T01:44:55;32.20;;;19.00;;
56581;SDS011;42463;52.214;21.238;2022-10-31T01:47:23;31.40;;;18.60;;
56581;SDS011;42463;52.214;21.238;2022-10-31T01:49:57;31.00;;;19.40;;
56581;SDS011;42463;52.214;21.238;2022-10-31T01:52:26;29.80;;;17.90;;
56581;SDS011;42463;52.214;21.238;2022-10-31T01:54:56;27.90;;;17.20;;
56581;SDS011;42463;52.214;21.238;2022-10-31T01:57:24;29.30;;;17.60;;
56581;SDS011;42463;52.214;21.238;2022-10-31T01:59:50;47.10;;;24.80;;
56581;SDS011;42463;52.214;21.238;2022-10-31T02:02:44;31.80;;;19.60;;
56581;SDS011;42463;52.214;21.238;2022-10-31T02:05:12;31.50;;;17.90;;
56581;SDS011;42463;52.214;21.238;2022-10-31T02:07:41;29.80;;;19.00;;
56581;SDS011;42463;52.214;21.238;2022-10-31T02:10:11;94.90;;;40.70;;
56581;SDS011;42463;52.214;21.238;2022-10-31T02:12:36;99.00;;;44.00;;
56581;SDS011;42463;52.214;21.238;2022-10-31T02:15:00;47.50;;;24.00;;
56581;SDS011;42463;52.214;21.238;2022-10-31T02:17:26;37.40;;;20.20;;
56581;SDS011;42463;52.214;21.238;2022-10-31T02:19:54;31.30;;;19.50;;
56581;SDS011;42463;52.214;21.238;2022-10-31T02:22:30;33.70;;;20.60;;
56581;SDS011;42463;52.214;21.238;2022-10-31T02:25:06;36.80;;;19.40;;
56581;SDS011;42463;52.214;21.238;2022-10-31T02:27:53;28.40;;;17.70;;
56581;SDS011;42463;52.214;21.238;2022-10-31T02:30:34;31.30;;;19.30;;
56581;SDS011;42463;52.214;21.238;2022-10-31T02:33:07;29.50;;;18.70;;
56581;SDS011;42463;52.214;21.238;2022-10-31T02:35:50;30.20;;;18.50;;
56581;SDS011;42463;52.214;21.238;2022-10-31T02:38:26;27.20;;;17.50;;
56581;SDS011;42463;52.214;21.238;2022-10-31T02:41:06;30.30;;;17.80;;
56581;SDS011;42463;52.214;21.238;2022-10-31T02:43:47;27.50;;;18.20;;
56581;SDS011;42463;52.214;21.238;2022-10-31T02:46:22;30.00;;;18.30;;
56581;SDS011;42463;52.214;21.238;2022-10-31T02:48:51;28.40;;;17.70;;
56581;SDS011;42463;52.214;21.238;2022-10-31T02:51:20;30.80;;;19.40;;
56581;SDS011;42463;52.214;21.238;2022-10-31T02:53:44;29.00;;;19.10;;
56581;SDS011;42463;52.214;21.238;2022-10-31T02:56:11;28.90;;;19.00;;
56581;SDS011;42463;52.214;21.238;2022-10-31T02:58:37;26.50;;;18.50;;
56581;SDS011;42463;52.214;21.238;2022-10-31T03:04:04;27.70;;;18.10;;
56581;SDS011;42463;52.214;21.238;2022-10-31T03:06:41;28.30;;;18.50;;
56581;SDS011;42463;52.214;21.238;2022-10-31T03:09:15;30.40;;;18.70;;
56581;SDS011;42463;52.214;21.238;2022-10-31T03:11:46;27.70;;;18.40;;
56581;SDS011;42463;52.214;21.238;2022-10-31T03:14:20;27.50;;;18.30;;
56581;SDS011;42463;52.214;21.238;2022-10-31T03:16:53;28.90;;;18.90;;
56581;SDS011;42463;52.214;21.238;2022-10-31T03:19:23;30.70;;;19.00;;
56581;SDS011;42463;52.214;21.238;2022-10-31T03:21:51;30.20;;;18.60;;
56581;SDS011;42463;52.214;21.238;2022-10-31T03:24:20;28.60;;;17.80;;
56581;SDS011;42463;52.214;21.238;2022-10-31T03:26:49;28.20;;;17.90;;
56581;SDS011;42463;52.214;21.238;2022-10-31T03:29:19;28.10;;;18.00;;
56581;SDS011;42463;52.214;21.238;2022-10-31T03:31:47;30.10;;;19.40;;
56581;SDS011;42463;52.214;21.238;2022-10-31T03:34:17;31.80;;;19.60;;
56581;SDS011;42463;52.214;21.238;2022-10-31T03:36:42;27.10;;;18.30;;
56581;SDS011;42463;52.214;21.238;2022-10-31T03:39:12;33.90;;;19.30;;
56581;SDS011;42463;52.214;21.238;2022-10-31T03:41:41;32.20;;;20.40;;
56581;SDS011;42463;52.214;21.238;2022-10-31T03:44:10;31.90;;;19.40;;
56581;SDS011;42463;52.214;21.238;2022-10-31T03:46:42;29.30;;;19.10;;
56581;SDS011;42463;52.214;21.238;2022-10-31T03:49:07;33.20;;;20.20;;
56581;SDS011;42463;52.214;21.238;2022-10-31T03:51:34;34.30;;;20.40;;
56581;SDS011;42463;52.214;21.238;2022-10-31T03:54:03;32.70;;;20.20;;
56581;SDS011;42463;52.214;21.238;2022-10-31T03:56:35;29.20;;;19.60;;
56581;SDS011;42463;52.214;21.238;2022-10-31T03:59:05;26.90;;;18.70;;
56581;SDS011;42463;52.214;21.238;2022-10-31T04:01:38;26.50;;;17.80;;
56581;SDS011;42463;52.214;21.238;2022-10-31T04:04:07;30.50;;;19.20;;
56581;SDS011;42463;52.214;21.238;2022-10-31T04:06:32;31.00;;;19.10;;
56581;SDS011;42463;52.214;21.238;2022-10-31T04:09:00;27.20;;;18.70;;
56581;SDS011;42463;52.214;21.238;2022-10-31T04:11:27;27.00;;;18.20;;
56581;SDS011;42463;52.214;21.238;2022-10-31T04:14:14;26.60;;;17.80;;
56581;SDS011;42463;52.214;21.238;2022-10-31T04:16:40;27.20;;;18.80;;
56581;SDS011;42463;52.214;21.238;2022-10-31T04:19:07;28.50;;;19.10;;
56581;SDS011;42463;52.214;21.238;2022-10-31T04:21:32;30.30;;;19.50;;
56581;SDS011;42463;52.214;21.238;2022-10-31T04:23:56;30.20;;;19.80;;
56581;SDS011;42463;52.214;21.238;2022-10-31T04:26:21;34.10;;;22.60;;
56581;SDS011;42463;52.214;21.238;2022-10-31T04:28:46;30.30;;;19.10;;
56581;SDS011;42463;52.214;21.238;2022-10-31T04:31:11;31.80;;;20.40;;
56581;SDS011;42463;52.214;21.238;2022-10-31T04:33:37;29.60;;;19.50;;
56581;SDS011;42463;52.214;21.238;2022-10-31T04:36:02;29.50;;;19.90;;
56581;SDS011;42463;52.214;21.238;2022-10-31T04:38:27;32.20;;;20.90;;
56581;SDS011;42463;52.214;21.238;2022-10-31T04:40:52;34.80;;;21.30;;
56581;SDS011;42463;52.214;21.238;2022-10-31T04:43:25;34.80;;;22.10;;
56581;SDS011;42463;52.214;21.238;2022-10-31T04:45:50;35.50;;;20.80;;
56581;SDS011;42463;52.214;21.238;2022-10-31T04:48:15;34.90;;;20.90;;
56581;SDS011;42463;52.214;21.238;2022-10-31T04:50:39;34.40;;;21.50;;
56581;SDS011;42463;52.214;21.238;2022-10-31T04:53:03;37.10;;;21.40;;
56581;SDS011;42463;52.214;21.238;2022-10-31T04:55:35;34.50;;;21.60;;
56581;SDS011;42463;52.214;21.238;2022-10-31T04:58:29;35.30;;;20.70;;
56581;SDS011;42463;52.214;21.238;2022-10-31T05:00:53;40.70;;;23.30;;
56581;SDS011;42463;52.214;21.238;2022-10-31T05:03:18;33.80;;;20.90;;
56581;SDS011;42463;52.214;21.238;2022-10-31T05:05:43;33.70;;;20.90;;
56581;SDS011;42463;52.214;21.238;2022-10-31T05:08:08;33.40;;;21.50;;
56581;SDS011;42463;52.214;21.238;2022-10-31T05:10:32;39.20;;;22.30;;
56581;SDS011;42463;52.214;21.238;2022-10-31T05:12:58;43.00;;;25.60;;
56581;SDS011;42463;52.214;21.238;2022-10-31T05:15:55;40.10;;;24.90;;
56581;SDS011;42463;52.214;21.238;2022-10-31T05:18:39;49.40;;;27.10;;
56581;SDS011;42463;52.214;21.238;2022-10-31T05:21:39;43.10;;;24.80;;
56581;SDS011;42463;52.214;21.238;2022-10-31T05:24:04;45.80;;;27.00;;
56581;SDS011;42463;52.214;21.238;2022-10-31T05:26:30;45.20;;;26.60;;
56581;SDS011;42463;52.214;21.238;2022-10-31T05:28:54;43.70;;;27.10;;
56581;SDS011;42463;52.214;21.238;2022-10-31T05:31:19;44.70;;;25.90;;
56581;SDS011;42463;52.214;21.238;2022-10-31T05:33:44;46.80;;;25.00;;
56581;SDS011;42463;52.214;21.238;2022-10-31T05:36:28;41.30;;;25.10;;
56581;SDS011;42463;52.214;21.238;2022-10-31T05:38:54;42.90;;;24.40;;
56581;SDS011;42463;52.214;21.238;2022-10-31T05:41:20;44.10;;;24.70;;
56581;SDS011;42463;52.214;21.238;2022-10-31T05:43:45;45.60;;;25.70;;
56581;SDS011;42463;52.214;21.238;2022-10-31T05:46:09;44.40;;;27.70;;
56581;SDS011;42463;52.214;21.238;2022-10-31T05:49:06;48.80;;;26.70;;
56581;SDS011;42463;52.214;21.238;2022-10-31T05:52:00;39.30;;;23.70;;
56581;SDS011;42463;52.214;21.238;2022-10-31T05:54:35;37.70;;;23.40;;
56581;SDS011;42463;52.214;21.238;2022-10-31T05:56:59;39.70;;;24.20;;
56581;SDS011;42463;52.214;21.238;2022-10-31T05:59:24;37.10;;;23.40;;
56581;SDS011;42463;52.214;21.238;2022-10-31T06:04:28;37.40;;;23.70;;
56581;SDS011;42463;52.214;21.238;2022-10-31T06:06:53;37.00;;;24.30;;
56581;SDS011;42463;52.214;21.238;2022-10-31T06:09:18;41.40;;;25.40;;
56581;SDS011;42463;52.214;21.238;2022-10-31T06:11:43;40.10;;;26.90;;
56581;SDS011;42463;52.214;21.238;2022-10-31T06:14:19;41.00;;;26.50;;
56581;SDS011;42463;52.214;21.238;2022-10-31T06:16:51;41.10;;;26.00;;
56581;SDS011;42463;52.214;21.238;2022-10-31T06:19:48;40.20;;;26.80;;
56581;SDS011;42463;52.214;21.238;2022-10-31T06:22:15;38.40;;;26.00;;
56581;SDS011;42463;52.214;21.238;2022-10-31T06:24:40;39.90;;;26.60;;
56581;SDS011;42463;52.214;21.238;2022-10-31T06:27:16;36.80;;;25.50;;
56581;SDS011;42463;52.214;21.238;2022-10-31T06:29:41;39.30;;;25.20;;
56581;SDS011;42463;52.214;21.238;2022-10-31T06:32:13;40.30;;;27.20;;
56581;SDS011;42463;52.214;21.238;2022-10-31T06:34:38;39.20;;;25.90;;
56581;SDS011;42463;52.214;21.238;2022-10-31T06:37:03;39.60;;;26.40;;
56581;SDS011;42463;52.214;21.238;2022-10-31T06:39:29;40.50;;;25.20;;
56581;SDS011;42463;52.214;21.238;2022-10-31T06:41:53;38.30;;;24.30;;
56581;SDS011;42463;52.214;21.238;2022-10-31T06:44:18;35.50;;;22.80;;
56581;SDS011;42463;52.214;21.238;2022-10-31T06:46:46;38.80;;;22.70;;
56581;SDS011;42463;52.214;21.238;2022-10-31T06:49:30;34.30;;;22.40;;
56581;SDS011;42463;52.214;21.238;2022-10-31T06:51:57;36.10;;;22.00;;
56581;SDS011;42463;52.214;21.238;2022-10-31T06:54:22;34.30;;;21.90;;
56581;SDS011;42463;52.214;21.238;2022-10-31T06:56:47;37.00;;;22.80;;
56581;SDS011;42463;52.214;21.238;2022-10-31T06:59:11;32.00;;;20.90;;
56581;SDS011;42463;52.214;21.238;2022-10-31T07:01:54;31.40;;;19.10;;
56581;SDS011;42463;52.214;21.238;2022-10-31T07:04:20;29.10;;;18.60;;
56581;SDS011;42463;52.214;21.238;2022-10-31T07:06:46;27.90;;;18.80;;
56581;SDS011;42463;52.214;21.238;2022-10-31T07:09:13;30.10;;;17.80;;
56581;SDS011;42463;52.214;21.238;2022-10-31T07:11:38;27.30;;;17.60;;
56581;SDS011;42463;52.214;21.238;2022-10-31T07:14:03;27.70;;;18.10;;
56581;SDS011;42463;52.214;21.238;2022-10-31T07:16:27;25.30;;;17.50;;
56581;SDS011;42463;52.214;21.238;2022-10-31T07:18:52;25.10;;;16.90;;
56581;SDS011;42463;52.214;21.238;2022-10-31T07:21:16;25.90;;;17.40;;
56581;SDS011;42463;52.214;21.238;2022-10-31T07:23:41;24.50;;;17.20;;
56581;SDS011;42463;52.214;21.238;2022-10-31T07:26:26;26.50;;;17.40;;
56581;SDS011;42463;52.214;21.238;2022-10-31T07:28:50;26.20;;;16.60;;
56581;SDS011;42463;52.214;21.238;2022-10-31T07:31:17;29.10;;;16.70;;
56581;SDS011;42463;52.214;21.238;2022-10-31T07:33:42;23.70;;;14.70;;
56581;SDS011;42463;52.214;21.238;2022-10-31T07:36:21;23.60;;;16.20;;
56581;SDS011;42463;52.214;21.238;2022-10-31T07:38:46;22.80;;;15.50;;
56581;SDS011;42463;52.214;21.238;2022-10-31T07:41:12;24.20;;;16.30;;
56581;SDS011;42463;52.214;21.238;2022-10-31T07:43:38;27.30;;;17.60;;
56581;SDS011;42463;52.214;21.238;2022-10-31T07:46:03;25.90;;;16.40;;
56581;SDS011;42463;52.214;21.238;2022-10-31T07:48:48;28.00;;;16.90;;
56581;SDS011;42463;52.214;21.238;2022-10-31T07:51:32;26.40;;;16.40;;
56581;SDS011;42463;52.214;21.238;2022-10-31T07:54:13;22.00;;;15.40;;
56581;SDS011;42463;52.214;21.238;2022-10-31T07:56:38;25.70;;;15.60;;
56581;SDS011;42463;52.214;21.238;2022-10-31T07:59:03;20.50;;;14.30;;
56581;SDS011;42463;52.214;21.238;2022-10-31T08:01:27;22.70;;;14.30;;
56581;SDS011;42463;52.214;21.238;2022-10-31T08:04:11;25.70;;;15.70;;
56581;SDS011;42463;52.214;21.238;2022-10-31T08:07:01;22.50;;;14.70;;
56581;SDS011;42463;52.214;21.238;2022-10-31T08:09:29;23.40;;;14.60;;
56581;SDS011;42463;52.214;21.238;2022-10-31T08:11:56;22.40;;;13.40;;
56581;SDS011;42463;52.214;21.238;2022-10-31T08:14:21;19.30;;;13.10;;
56581;SDS011;42463;52.214;21.238;2022-10-31T08:16:50;22.20;;;13.20;;
56581;SDS011;42463;52.214;21.238;2022-10-31T08:19:16;18.60;;;12.70;;
56581;SDS011;42463;52.214;21.238;2022-10-31T08:21:40;20.40;;;12.80;;
56581;SDS011;42463;52.214;21.238;2022-10-31T08:24:06;19.10;;;13.40;;
56581;SDS011;42463;52.214;21.238;2022-10-31T08:26:30;18.10;;;11.80;;
56581;SDS011;42463;52.214;21.238;2022-10-31T08:28:55;17.30;;;11.30;;
56581;SDS011;42463;52.214;21.238;2022-10-31T08:31:21;17.50;;;11.80;;
56581;SDS011;42463;52.214;21.238;2022-10-31T08:34:13;18.40;;;11.30;;
56581;SDS011;42463;52.214;21.238;2022-10-31T08:36:57;19.40;;;11.40;;
56581;SDS011;42463;52.214;21.238;2022-10-31T08:39:29;19.50;;;10.90;;
56581;SDS011;42463;52.214;21.238;2022-10-31T08:41:54;16.00;;;10.70;;
56581;SDS011;42463;52.214;21.238;2022-10-31T08:44:18;18.10;;;11.20;;
56581;SDS011;42463;52.214;21.238;2022-10-31T08:46:43;17.60;;;11.10;;
56581;SDS011;42463;52.214;21.238;2022-10-31T08:49:07;18.60;;;10.90;;
56581;SDS011;42463;52.214;21.238;2022-10-31T08:51:33;16.70;;;10.60;;
56581;SDS011;42463;52.214;21.238;2022-10-31T08:53:57;19.30;;;11.20;;
56581;SDS011;42463;52.214;21.238;2022-10-31T08:56:28;16.50;;;10.80;;
56581;SDS011;42463;52.214;21.238;2022-10-31T08:58:54;19.90;;;13.00;;
56581;SDS011;42463;52.214;21.238;2022-10-31T09:01:28;20.90;;;13.50;;
56581;SDS011;42463;52.214;21.238;2022-10-31T09:03:53;17.40;;;12.20;;
56581;SDS011;42463;52.214;21.238;2022-10-31T09:06:17;20.80;;;11.90;;
56581;SDS011;42463;52.214;21.238;2022-10-31T09:08:43;21.00;;;12.80;;
56581;SDS011;42463;52.214;21.238;2022-10-31T09:11:08;19.50;;;13.50;;
56581;SDS011;42463;52.214;21.238;2022-10-31T09:14:10;20.30;;;12.40;;
56581;SDS011;42463;52.214;21.238;2022-10-31T09:16:34;21.70;;;13.50;;
56581;SDS011;42463;52.214;21.238;2022-10-31T09:18:59;23.20;;;13.50;;
56581;SDS011;42463;52.214;21.238;2022-10-31T09:21:24;22.50;;;15.50;;
56581;SDS011;42463;52.214;21.238;2022-10-31T09:23:48;22.90;;;14.10;;
56581;SDS011;42463;52.214;21.238;2022-10-31T09:26:15;21.50;;;13.60;;
56581;SDS011;42463;52.214;21.238;2022-10-31T09:28:52;22.10;;;14.10;;
56581;SDS011;42463;52.214;21.238;2022-10-31T09:31:17;25.60;;;15.80;;
56581;SDS011;42463;52.214;21.238;2022-10-31T09:33:49;22.90;;;14.60;;
56581;SDS011;42463;52.214;21.238;2022-10-31T09:36:27;24.90;;;15.40;;
56581;SDS011;42463;52.214;21.238;2022-10-31T09:38:52;24.60;;;15.10;;
56581;SDS011;42463;52.214;21.238;2022-10-31T09:41:19;24.60;;;14.60;;
56581;SDS011;42463;52.214;21.238;2022-10-31T09:43:49;22.80;;;13.70;;
56581;SDS011;42463;52.214;21.238;2022-10-31T09:46:22;24.40;;;14.70;;
56581;SDS011;42463;52.214;21.238;2022-10-31T09:49:02;22.00;;;14.20;;
56581;SDS011;42463;52.214;21.238;2022-10-31T09:51:44;21.70;;;13.60;;
56581;SDS011;42463;52.214;21.238;2022-10-31T09:54:20;22.70;;;14.00;;
56581;SDS011;42463;52.214;21.238;2022-10-31T09:56:58;24.10;;;14.10;;
56581;SDS011;42463;52.214;21.238;2022-10-31T09:59:26;26.20;;;14.90;;
56581;SDS011;42463;52.214;21.238;2022-10-31T10:01:55;22.00;;;14.10;;
56581;SDS011;42463;52.214;21.238;2022-10-31T10:04:27;21.50;;;13.50;;
56581;SDS011;42463;52.214;21.238;2022-10-31T10:07:11;20.60;;;13.10;;
56581;SDS011;42463;52.214;21.238;2022-10-31T10:09:41;20.80;;;12.90;;
56581;SDS011;42463;52.214;21.238;2022-10-31T10:12:21;21.40;;;13.90;;
56581;SDS011;42463;52.214;21.238;2022-10-31T10:15:00;19.60;;;11.90;;
56581;SDS011;42463;52.214;21.238;2022-10-31T10:17:41;19.50;;;12.70;;
56581;SDS011;42463;52.214;21.238;2022-10-31T10:20:18;22.20;;;13.10;;
56581;SDS011;42463;52.214;21.238;2022-10-31T10:22:54;22.00;;;12.30;;
56581;SDS011;42463;52.214;21.238;2022-10-31T10:25:26;19.50;;;13.40;;
56581;SDS011;42463;52.214;21.238;2022-10-31T10:28:02;19.80;;;12.20;;
56581;SDS011;42463;52.214;21.238;2022-10-31T10:30:34;18.50;;;11.90;;
56581;SDS011;42463;52.214;21.238;2022-10-31T10:33:05;20.90;;;13.00;;
56581;SDS011;42463;52.214;21.238;2022-10-31T10:35:38;20.90;;;13.00;;
56581;SDS011;42463;52.214;21.238;2022-10-31T10:38:08;17.90;;;12.00;;
56581;SDS011;42463;52.214;21.238;2022-10-31T10:40:40;19.20;;;13.50;;
56581;SDS011;42463;52.214;21.238;2022-10-31T10:43:19;18.60;;;12.30;;
56581;SDS011;42463;52.214;21.238;2022-10-31T10:45:48;18.50;;;12.90;;
56581;SDS011;42463;52.214;21.238;2022-10-31T10:48:36;20.30;;;12.80;;
56581;SDS011;42463;52.214;21.238;2022-10-31T10:51:08;17.20;;;11.60;;
56581;SDS011;42463;52.214;21.238;2022-10-31T10:53:43;21.90;;;12.70;;
56581;SDS011;42463;52.214;21.238;2022-10-31T10:56:25;20.80;;;13.30;;
56581;SDS011;42463;52.214;21.238;2022-10-31T10:58:59;22.60;;;11.40;;
56581;SDS011;42463;52.214;21.238;2022-10-31T11:01:24;15.90;;;10.60;;
56581;SDS011;42463;52.214;21.238;2022-10-31T11:03:49;16.70;;;11.00;;
56581;SDS011;42463;52.214;21.238;2022-10-31T11:06:17;19.60;;;11.90;;
56581;SDS011;42463;52.214;21.238;2022-10-31T11:08:47;20.70;;;13.60;;
56581;SDS011;42463;52.214;21.238;2022-10-31T11:11:13;20.30;;;13.10;;
56581;SDS011;42463;52.214;21.238;2022-10-31T11:13:55;20.00;;;14.10;;
56581;SDS011;42463;52.214;21.238;2022-10-31T11:16:32;18.60;;;12.80;;
56581;SDS011;42463;52.214;21.238;2022-10-31T11:19:06;21.00;;;12.20;;
56581;SDS011;42463;52.214;21.238;2022-10-31T11:21:37;16.80;;;11.60;;
56581;SDS011;42463;52.214;21.238;2022-10-31T11:24:08;21.20;;;14.20;;
56581;SDS011;42463;52.214;21.238;2022-10-31T11:26:38;19.90;;;12.40;;
56581;SDS011;42463;52.214;21.238;2022-10-31T11:29:03;22.20;;;13.10;;
56581;SDS011;42463;52.214;21.238;2022-10-31T11:31:35;20.00;;;12.60;;
56581;SDS011;42463;52.214;21.238;2022-10-31T11:33:59;16.70;;;11.60;;
56581;SDS011;42463;52.214;21.238;2022-10-31T11:36:27;16.90;;;11.90;;
56581;SDS011;42463;52.214;21.238;2022-10-31T11:38:54;18.10;;;12.60;;
56581;SDS011;42463;52.214;21.238;2022-10-31T11:41:25;19.20;;;13.00;;
56581;SDS011;42463;52.214;21.238;2022-10-31T11:43:52;19.60;;;12.40;;
56581;SDS011;42463;52.214;21.238;2022-10-31T11:46:20;18.00;;;12.00;;
56581;SDS011;42463;52.214;21.238;2022-10-31T11:48:49;16.20;;;11.60;;
56581;SDS011;42463;52.214;21.238;2022-10-31T11:51:19;20.80;;;12.50;;
56581;SDS011;42463;52.214;21.238;2022-10-31T11:53:49;20.60;;;13.50;;
56581;SDS011;42463;52.214;21.238;2022-10-31T11:56:15;21.20;;;13.80;;
56581;SDS011;42463;52.214;21.238;2022-10-31T11:58:40;18.60;;;12.60;;
56581;SDS011;42463;52.214;21.238;2022-10-31T12:01:04;15.00;;;11.90;;
56581;SDS011;42463;52.214;21.238;2022-10-31T12:03:57;16.30;;;12.20;;
56581;SDS011;42463;52.214;21.238;2022-10-31T12:06:29;16.70;;;12.20;;
56581;SDS011;42463;52.214;21.238;2022-10-31T12:08:55;20.10;;;13.10;;
56581;SDS011;42463;52.214;21.238;2022-10-31T12:11:27;16.50;;;12.70;;
56581;SDS011;42463;52.214;21.238;2022-10-31T12:14:01;19.70;;;12.50;;
56581;SDS011;42463;52.214;21.238;2022-10-31T12:16:36;18.70;;;12.60;;
56581;SDS011;42463;52.214;21.238;2022-10-31T12:19:11;14.60;;;11.20;;
56581;SDS011;42463;52.214;21.238;2022-10-31T12:21:47;16.00;;;11.90;;
56581;SDS011;42463;52.214;21.238;2022-10-31T12:24:27;16.30;;;12.30;;
56581;SDS011;42463;52.214;21.238;2022-10-31T12:27:06;17.60;;;11.30;;
56581;SDS011;42463;52.214;21.238;2022-10-31T12:29:46;14.90;;;11.50;;
56581;SDS011;42463;52.214;21.238;2022-10-31T12:32:28;15.80;;;11.90;;
56581;SDS011;42463;52.214;21.238;2022-10-31T12:35:20;18.60;;;11.40;;
56581;SDS011;42463;52.214;21.238;2022-10-31T12:37:56;17.00;;;12.50;;
56581;SDS011;42463;52.214;21.238;2022-10-31T12:40:40;18.70;;;13.10;;
56581;SDS011;42463;52.214;21.238;2022-10-31T12:43:20;17.00;;;11.30;;
56581;SDS011;42463;52.214;21.238;2022-10-31T12:45:56;14.40;;;9.80;;
56581;SDS011;42463;52.214;21.238;2022-10-31T12:51:15;15.30;;;11.00;;
56581;SDS011;42463;52.214;21.238;2022-10-31T12:53:51;15.80;;;10.80;;
56581;SDS011;42463;52.214;21.238;2022-10-31T12:56:34;15.50;;;11.00;;
56581;SDS011;42463;52.214;21.238;2022-10-31T12:59:09;17.50;;;10.60;;
56581;SDS011;42463;52.214;21.238;2022-10-31T13:01:38;18.90;;;11.20;;
56581;SDS011;42463;52.214;21.238;2022-10-31T13:04:12;13.80;;;10.10;;
56581;SDS011;42463;52.214;21.238;2022-10-31T13:06:41;17.50;;;10.80;;
56581;SDS011;42463;52.214;21.238;2022-10-31T13:09:10;18.10;;;9.90;;
56581;SDS011;42463;52.214;21.238;2022-10-31T13:11:41;13.70;;;9.30;;
56581;SDS011;42463;52.214;21.238;2022-10-31T13:14:10;13.80;;;10.10;;
56581;SDS011;42463;52.214;21.238;2022-10-31T13:16:42;13.40;;;9.60;;
56581;SDS011;42463;52.214;21.238;2022-10-31T13:19:10;20.00;;;9.90;;
56581;SDS011;42463;52.214;21.238;2022-10-31T13:21:49;15.70;;;9.10;;
56581;SDS011;42463;52.214;21.238;2022-10-31T13:24:22;14.50;;;9.20;;
56581;SDS011;42463;52.214;21.238;2022-10-31T13:26:54;16.60;;;9.30;;
56581;SDS011;42463;52.214;21.238;2022-10-31T13:29:23;12.40;;;8.80;;
56581;SDS011;42463;52.214;21.238;2022-10-31T13:31:51;13.40;;;9.20;;
56581;SDS011;42463;52.214;21.238;2022-10-31T13:34:22;15.20;;;9.20;;
56581;SDS011;42463;52.214;21.238;2022-10-31T13:36:53;15.70;;;9.40;;
56581;SDS011;42463;52.214;21.238;2022-10-31T13:39:30;13.80;;;9.50;;
56581;SDS011;42463;52.214;21.238;2022-10-31T13:42:08;17.70;;;10.10;;
56581;SDS011;42463;52.214;21.238;2022-10-31T13:44:38;16.20;;;9.80;;
56581;SDS011;42463;52.214;21.238;2022-10-31T13:47:02;14.00;;;9.80;;
56581;SDS011;42463;52.214;21.238;2022-10-31T13:49:46;15.70;;;9.70;;
56581;SDS011;42463;52.214;21.238;2022-10-31T13:52:15;14.20;;;10.30;;
56581;SDS011;42463;52.214;21.238;2022-10-31T13:54:47;16.40;;;9.40;;
56581;SDS011;42463;52.214;21.238;2022-10-31T13:57:18;15.10;;;9.30;;
56581;SDS011;42463;52.214;21.238;2022-10-31T13:59:50;16.20;;;10.30;;
56581;SDS011;42463;52.214;21.238;2022-10-31T14:02:21;17.80;;;10.70;;
56581;SDS011;42463;52.214;21.238;2022-10-31T14:04:51;18.30;;;9.90;;
56581;SDS011;42463;52.214;21.238;2022-10-31T14:07:19;16.20;;;10.80;;
56581;SDS011;42463;52.214;21.238;2022-10-31T14:09:52;15.60;;;10.00;;
56581;SDS011;42463;52.214;21.238;2022-10-31T14:12:23;18.50;;;10.30;;
56581;SDS011;42463;52.214;21.238;2022-10-31T14:14:52;13.50;;;9.80;;
56581;SDS011;42463;52.214;21.238;2022-10-31T14:17:22;12.50;;;8.80;;
56581;SDS011;42463;52.214;21.238;2022-10-31T14:20:03;14.00;;;9.80;;
56581;SDS011;42463;52.214;21.238;2022-10-31T14:22:58;14.80;;;9.60;;
56581;SDS011;42463;52.214;21.238;2022-10-31T14:25:33;15.30;;;10.00;;
56581;SDS011;42463;52.214;21.238;2022-10-31T14:27:59;14.80;;;8.80;;
56581;SDS011;42463;52.214;21.238;2022-10-31T14:30:26;12.70;;;8.80;;
56581;SDS011;42463;52.214;21.238;2022-10-31T14:32:53;11.10;;;8.10;;
56581;SDS011;42463;52.214;21.238;2022-10-31T14:35:20;12.70;;;7.90;;
56581;SDS011;42463;52.214;21.238;2022-10-31T14:40:35;12.20;;;7.80;;
56581;SDS011;42463;52.214;21.238;2022-10-31T14:43:18;15.80;;;8.60;;
56581;SDS011;42463;52.214;21.238;2022-10-31T14:45:55;15.40;;;9.00;;
56581;SDS011;42463;52.214;21.238;2022-10-31T14:51:10;14.40;;;8.40;;